createdAt,value
2018-06-23T00:00:01.393Z,101728.30
2018-06-23T00:02:28.391Z,101732.71
2018-06-23T00:04:55.502Z,101734.10
2018-06-23T00:07:22.605Z,101729.97
2018-06-23T00:09:49.656Z,101730.91
2018-06-23T00:12:16.673Z,101729.02
2018-06-23T00:14:43.784Z,101719.84
2018-06-23T00:17:10.978Z,101713.80
2018-06-23T00:19:37.984Z,101719.01
2018-06-23T00:22:05.185Z,101711.04
2018-06-23T00:24:32.224Z,101715.86
2018-06-23T00:26:59.269Z,101715.90
2018-06-23T00:29:26.332Z,101714.10
2018-06-23T00:31:53.258Z,101710.02
2018-06-23T00:34:20.257Z,101707.55
2018-06-23T00:36:47.253Z,101700.10
2018-06-23T00:39:15.229Z,101697.05
2018-06-23T00:41:42.347Z,101704.63
2018-06-23T00:44:12.015Z,101699.27
2018-06-23T00:46:39.053Z,101706.74
2018-06-23T00:49:06.069Z,101697.91
2018-06-23T00:51:33.077Z,101700.93
2018-06-23T00:54:00.168Z,101698.00
2018-06-23T00:56:27.252Z,101704.99
2018-06-23T00:59:05.797Z,101706.78
2018-06-23T01:01:32.794Z,101701.55
2018-06-23T01:03:59.781Z,101699.56
2018-06-23T01:06:26.788Z,101694.98
2018-06-23T01:08:53.816Z,101689.64
2018-06-23T01:11:20.795Z,101697.17
2018-06-23T01:13:47.777Z,101690.66
2018-06-23T01:16:14.949Z,101693.00
2018-06-23T01:18:42.112Z,101691.20
2018-06-23T01:21:09.216Z,101687.16
2018-06-23T01:23:36.290Z,101680.03
2018-06-23T01:26:03.247Z,101685.67
2018-06-23T01:28:30.232Z,101686.48
2018-06-23T01:30:57.361Z,101679.75
2018-06-23T01:33:24.388Z,101678.73
2018-06-23T01:35:51.453Z,101678.57
2018-06-23T01:38:18.402Z,101675.27
2018-06-23T01:40:45.416Z,101682.70
2018-06-23T01:43:12.467Z,101671.83
2018-06-23T01:45:39.530Z,101672.53
2018-06-23T01:48:06.648Z,101664.01
2018-06-23T01:50:33.712Z,101669.92
2018-06-23T01:53:00.657Z,101655.22
2018-06-23T01:55:27.775Z,101664.77
2018-06-23T01:57:54.709Z,101659.73
2018-06-23T02:00:21.654Z,101658.47
2018-06-23T02:02:48.577Z,101659.66
2018-06-23T02:05:15.530Z,101666.23
2018-06-23T02:07:42.481Z,101665.82
2018-06-23T02:10:09.417Z,101663.48
2018-06-23T02:12:36.329Z,101666.06
2018-06-23T02:15:10.164Z,101665.04
2018-06-23T02:17:43.998Z,101664.26
2018-06-23T02:20:16.629Z,101661.13
2018-06-23T02:22:49.273Z,101664.12
2018-06-23T02:25:21.941Z,101666.77
2018-06-23T02:27:54.669Z,101668.55
2018-06-23T02:30:27.303Z,101670.07
2018-06-23T02:32:54.262Z,101663.87
2018-06-23T02:35:21.614Z,101663.94
2018-06-23T02:37:48.529Z,101662.03
2018-06-23T02:40:15.474Z,101660.23
2018-06-23T02:42:42.417Z,101657.50
2018-06-23T02:45:09.334Z,101660.89
2018-06-23T02:47:36.371Z,101664.84
2018-06-23T02:50:03.615Z,101660.45
2018-06-23T02:52:31.131Z,101669.27
2018-06-23T02:54:58.049Z,101670.12
2018-06-23T02:57:24.970Z,101669.67
2018-06-23T02:59:51.885Z,101667.02
2018-06-23T03:02:18.846Z,101674.10
2018-06-23T03:04:45.773Z,101673.22
2018-06-23T03:07:12.701Z,101671.95
2018-06-23T03:09:39.630Z,101679.67
2018-06-23T03:12:06.569Z,101670.08
2018-06-23T03:14:33.476Z,101669.60
2018-06-23T03:17:00.401Z,101666.44
2018-06-23T03:19:27.326Z,101662.83
2018-06-23T03:21:54.268Z,101657.17
2018-06-23T03:24:21.189Z,101669.36
2018-06-23T03:26:48.134Z,101662.69
2018-06-23T03:29:15.053Z,101664.56
2018-06-23T03:31:41.994Z,101671.13
2018-06-23T03:34:08.912Z,101666.56
2018-06-23T03:36:36.080Z,101675.79
2018-06-23T03:39:04.910Z,101679.73
2018-06-23T03:41:31.849Z,101678.45
2018-06-23T03:43:58.794Z,101684.27
2018-06-23T03:46:25.717Z,101686.08
2018-06-23T03:48:52.904Z,101688.94
2018-06-23T03:51:19.820Z,101689.86
2018-06-23T03:53:46.754Z,101685.40
2018-06-23T03:56:13.677Z,101685.30
2018-06-23T03:58:40.589Z,101683.49
2018-06-23T04:01:08.086Z,101683.93
2018-06-23T04:03:35.062Z,101687.55
2018-06-23T04:06:02.201Z,101697.45
2018-06-23T04:08:29.117Z,101701.53
2018-06-23T04:10:56.044Z,101704.52
2018-06-23T04:13:22.972Z,101708.30
2018-06-23T04:15:49.900Z,101703.50
2018-06-23T04:18:16.813Z,101710.61
2018-06-23T04:20:43.720Z,101709.41
2018-06-23T04:23:10.642Z,101711.20
2018-06-23T04:25:37.549Z,101709.59
2018-06-23T04:28:04.503Z,101705.22
2018-06-23T04:30:31.433Z,101699.09
2018-06-23T04:32:58.369Z,101695.59
2018-06-23T04:35:25.282Z,101705.72
2018-06-23T04:37:52.207Z,101715.84
2018-06-23T04:40:19.189Z,101712.71
2018-06-23T04:42:46.397Z,101721.14
2018-06-23T04:45:13.321Z,101719.34
2018-06-23T04:47:40.398Z,101727.41
2018-06-23T04:50:07.444Z,101722.67
2018-06-23T04:52:34.376Z,101723.08
2018-06-23T04:55:01.308Z,101728.33
2018-06-23T04:57:28.233Z,101723.20
2018-06-23T04:59:55.156Z,101721.94
2018-06-23T05:02:22.072Z,101726.71
2018-06-23T05:04:48.978Z,101724.20
2018-06-23T05:07:15.898Z,101722.78
2018-06-23T05:09:42.809Z,101725.88
2018-06-23T05:12:09.725Z,101720.59
2018-06-23T05:14:36.641Z,101715.00
2018-06-23T05:17:04.202Z,101718.63
2018-06-23T05:19:31.115Z,101713.00
2018-06-23T05:21:58.037Z,101708.64
2018-06-23T05:24:24.985Z,101708.36
2018-06-23T05:26:51.918Z,101708.31
2018-06-23T05:31:52.686Z,101713.11
2018-06-23T05:34:19.577Z,101714.36
2018-06-23T05:36:46.487Z,101717.29
2018-06-23T05:39:13.408Z,101720.36
2018-06-23T05:41:40.330Z,101720.76
2018-06-23T05:44:07.253Z,101726.48
2018-06-23T05:46:34.377Z,101723.52
2018-06-23T05:49:01.293Z,101732.08
2018-06-23T05:51:28.369Z,101737.80
2018-06-23T05:53:55.308Z,101740.77
2018-06-23T05:56:22.236Z,101745.63
2018-06-23T05:58:49.169Z,101731.66
2018-06-23T06:01:16.085Z,101733.61
2018-06-23T06:03:43.023Z,101730.31
2018-06-23T06:06:09.960Z,101729.77
2018-06-23T06:08:36.902Z,101733.17
2018-06-23T06:11:03.806Z,101735.30
2018-06-23T06:13:30.737Z,101730.28
2018-06-23T06:15:57.656Z,101737.41
2018-06-23T06:18:24.593Z,101735.69
2018-06-23T06:20:51.504Z,101737.05
2018-06-23T06:23:18.428Z,101738.17
2018-06-23T06:25:45.356Z,101739.95
2018-06-23T06:28:12.280Z,101747.88
2018-06-23T06:30:39.204Z,101747.73
2018-06-23T06:33:06.173Z,101747.13
2018-06-23T06:35:33.111Z,101746.22
2018-06-23T06:38:00.010Z,101738.38
2018-06-23T06:40:26.949Z,101741.31
2018-06-23T06:42:53.857Z,101738.58
2018-06-23T06:45:20.793Z,101743.66
2018-06-23T06:47:47.721Z,101740.41
2018-06-23T06:50:14.669Z,101747.59
2018-06-23T06:52:41.584Z,101753.19
2018-06-23T06:55:08.529Z,101749.96
2018-06-23T06:57:35.457Z,101746.92
2018-06-23T07:00:02.433Z,101741.23
2018-06-23T07:02:29.338Z,101750.33
2018-06-23T07:04:56.269Z,101752.45
2018-06-23T07:07:23.196Z,101752.53
2018-06-23T07:09:50.117Z,101748.99
2018-06-23T07:12:17.068Z,101738.27
2018-06-23T07:14:43.992Z,101749.11
2018-06-23T07:17:10.909Z,101740.70
2018-06-23T07:19:37.836Z,101740.27
2018-06-23T07:22:04.756Z,101744.64
2018-06-23T07:24:31.686Z,101738.12
2018-06-23T07:26:58.606Z,101732.13
2018-06-23T07:29:25.540Z,101728.58
2018-06-23T07:31:52.440Z,101734.75
2018-06-23T07:34:19.408Z,101727.56
2018-06-23T07:36:46.289Z,101727.39
2018-06-23T07:39:13.212Z,101731.19
2018-06-23T07:41:40.110Z,101738.16
2018-06-23T07:44:07.743Z,101736.58
2018-06-23T07:46:35.277Z,101744.98
2018-06-23T07:49:02.248Z,101745.55
2018-06-23T07:51:29.225Z,101751.69
2018-06-23T07:53:56.164Z,101756.83
2018-06-23T07:56:23.129Z,101756.23
2018-06-23T07:58:50.052Z,101752.77
2018-06-23T08:01:16.985Z,101753.77
2018-06-23T08:03:43.902Z,101748.08
2018-06-23T08:06:10.848Z,101759.95
2018-06-23T08:08:37.762Z,101751.24
2018-06-23T08:11:04.706Z,101758.30
2018-06-23T08:13:31.625Z,101760.95
2018-06-23T08:15:58.586Z,101743.02
2018-06-23T08:18:25.698Z,101759.52
2018-06-23T08:20:52.630Z,101753.26
2018-06-23T08:23:19.896Z,101753.41
2018-06-23T08:25:46.877Z,101750.88
2018-06-23T08:28:13.784Z,101761.86
2018-06-23T08:30:40.712Z,101751.94
2018-06-23T08:33:07.636Z,101746.22
2018-06-23T08:35:34.544Z,101753.03
2018-06-23T08:38:01.445Z,101742.90
2018-06-23T08:40:28.364Z,101738.07
2018-06-23T08:42:55.294Z,101753.37
2018-06-23T08:45:22.208Z,101750.35
2018-06-23T08:47:49.131Z,101765.21
2018-06-23T08:50:16.053Z,101774.89
2018-06-23T08:52:42.983Z,101777.50
2018-06-23T08:55:09.901Z,101771.38
2018-06-23T08:57:36.825Z,101761.69
2018-06-23T09:00:04.207Z,101766.11
2018-06-23T09:02:31.132Z,101769.91
2018-06-23T09:04:58.049Z,101765.14
2018-06-23T09:07:25.272Z,101773.86
2018-06-23T09:09:52.232Z,101776.42
2018-06-23T09:12:19.151Z,101770.68
2018-06-23T09:14:46.058Z,101777.41
2018-06-23T09:17:12.981Z,101774.47
2018-06-23T09:19:40.051Z,101781.66
2018-06-23T09:22:06.983Z,101785.91
2018-06-23T09:24:33.930Z,101781.84
2018-06-23T09:27:00.901Z,101784.89
2018-06-23T09:29:27.826Z,101796.45
2018-06-23T09:31:54.762Z,101790.33
2018-06-23T09:34:21.675Z,101798.09
2018-06-23T09:36:48.611Z,101788.98
2018-06-23T09:39:15.528Z,101786.64
2018-06-23T09:41:42.456Z,101793.25
2018-06-23T09:44:09.664Z,101783.13
2018-06-23T09:46:38.388Z,101793.23
2018-06-23T09:49:05.991Z,101792.63
2018-06-23T09:51:32.921Z,101794.45
2018-06-23T09:53:59.840Z,101799.52
2018-06-23T09:56:26.761Z,101797.47
2018-06-23T09:58:53.687Z,101785.77
2018-06-23T10:01:20.623Z,101787.89
2018-06-23T10:03:49.339Z,101791.84
2018-06-23T10:06:17.702Z,101790.20
2018-06-23T10:08:46.375Z,101783.89
2018-06-23T10:11:15.909Z,101786.16
2018-06-23T10:13:42.876Z,101790.11
2018-06-23T10:16:09.831Z,101790.80
2018-06-23T10:18:36.744Z,101799.45
2018-06-23T10:21:03.728Z,101798.45
2018-06-23T10:23:30.649Z,101801.38
2018-06-23T10:25:57.608Z,101797.38
2018-06-23T10:28:24.601Z,101808.10
2018-06-23T10:30:51.533Z,101802.31
2018-06-23T10:33:18.465Z,101794.84
2018-06-23T10:35:45.409Z,101803.75
2018-06-23T10:38:12.340Z,101801.38
2018-06-23T10:40:39.302Z,101799.93
2018-06-23T10:43:06.229Z,101822.88
2018-06-23T10:45:33.134Z,101823.39
2018-06-23T10:48:00.085Z,101819.48
2018-06-23T10:50:27.034Z,101827.50
2018-06-23T10:52:53.984Z,101824.88
2018-06-23T10:55:20.905Z,101816.87
2018-06-23T10:57:47.908Z,101826.95
2018-06-23T11:00:14.832Z,101827.33
2018-06-23T11:02:41.760Z,101827.67
2018-06-23T11:05:08.727Z,101831.13
2018-06-23T11:07:35.732Z,101838.11
2018-06-23T11:10:02.705Z,101833.91
2018-06-23T11:12:29.640Z,101829.45
2018-06-23T11:14:56.565Z,101832.50
2018-06-23T11:17:23.518Z,101838.26
2018-06-23T11:19:50.428Z,101822.69
2018-06-23T11:22:17.377Z,101826.44
2018-06-23T11:24:44.325Z,101825.98
2018-06-23T11:27:11.253Z,101821.00
2018-06-23T11:29:38.185Z,101812.56
2018-06-23T11:32:05.177Z,101825.01
2018-06-23T11:34:32.140Z,101827.28
2018-06-23T11:36:59.073Z,101822.78
2018-06-23T11:39:26.072Z,101822.86
2018-06-23T11:41:52.997Z,101822.66
2018-06-23T11:44:19.926Z,101823.36
2018-06-23T11:46:46.874Z,101817.33
2018-06-23T11:49:13.804Z,101816.44
2018-06-23T11:51:40.818Z,101823.13
2018-06-23T11:54:07.801Z,101823.95
2018-06-23T11:56:34.770Z,101823.09
2018-06-23T11:59:01.705Z,101832.98
2018-06-23T12:01:28.658Z,101833.52
2018-06-23T12:03:55.612Z,101839.64
2018-06-23T12:06:24.364Z,101829.97
2018-06-23T12:08:51.364Z,101829.63
2018-06-23T12:11:18.283Z,101827.45
2018-06-23T12:13:45.214Z,101831.45
2018-06-23T12:16:12.145Z,101828.68
2018-06-23T12:18:39.094Z,101825.23
2018-06-23T12:21:06.025Z,101832.50
2018-06-23T12:23:32.962Z,101830.60
2018-06-23T12:25:59.915Z,101824.09
2018-06-23T12:28:26.868Z,101827.50
2018-06-23T12:30:53.825Z,101829.66
2018-06-23T12:33:20.752Z,101821.53
2018-06-23T12:35:47.686Z,101825.34
2018-06-23T12:38:14.666Z,101828.49
2018-06-23T12:40:41.609Z,101820.80
2018-06-23T12:43:08.544Z,101816.19
2018-06-23T12:45:35.461Z,101818.77
2018-06-23T12:48:02.382Z,101818.64
2018-06-23T12:50:29.313Z,101811.98
2018-06-23T12:52:56.245Z,101812.28
2018-06-23T12:55:23.161Z,101817.28
2018-06-23T12:57:50.090Z,101815.55
2018-06-23T13:00:17.029Z,101819.31
2018-06-23T13:02:43.953Z,101812.30
2018-06-23T13:05:10.880Z,101812.44
2018-06-23T13:07:37.838Z,101818.41
2018-06-23T13:10:04.829Z,101809.73
2018-06-23T13:12:31.763Z,101815.72
2018-06-23T13:14:58.722Z,101813.11
2018-06-23T13:17:25.674Z,101819.84
2018-06-23T13:19:52.597Z,101806.11
2018-06-23T13:22:19.645Z,101806.63
2018-06-23T13:24:46.560Z,101804.84
2018-06-23T13:27:13.489Z,101808.64
2018-06-23T13:29:40.456Z,101800.98
2018-06-23T13:32:07.407Z,101794.97
2018-06-23T13:34:34.369Z,101794.06
2018-06-23T13:37:01.499Z,101793.48
2018-06-23T13:39:28.464Z,101789.99
2018-06-23T13:41:55.387Z,101787.95
2018-06-23T13:44:22.328Z,101776.97
2018-06-23T13:46:49.248Z,101784.57
2018-06-23T13:49:16.208Z,101787.59
2018-06-23T13:51:43.149Z,101786.11
2018-06-23T13:54:10.149Z,101779.52
2018-06-23T13:56:39.221Z,101778.84
2018-06-23T13:59:08.996Z,101774.52
2018-06-23T14:01:38.162Z,101781.11
2018-06-23T14:04:05.114Z,101783.68
2018-06-23T14:06:32.053Z,101779.03
2018-06-23T14:08:58.996Z,101777.79
2018-06-23T14:11:25.939Z,101787.79
2018-06-23T14:13:52.874Z,101780.95
2018-06-23T14:16:19.863Z,101784.70
2018-06-23T14:18:46.781Z,101778.52
2018-06-23T14:21:13.705Z,101788.54
2018-06-23T14:23:40.660Z,101784.64
2018-06-23T14:26:07.610Z,101783.02
2018-06-23T14:28:34.537Z,101769.94
2018-06-23T14:31:01.438Z,101775.51
2018-06-23T14:33:28.377Z,101776.10
2018-06-23T14:35:55.292Z,101783.41
2018-06-23T14:38:22.223Z,101783.23
2018-06-23T14:40:49.238Z,101794.41
2018-06-23T14:43:16.178Z,101792.05
2018-06-23T14:45:43.118Z,101783.00
2018-06-23T14:48:10.035Z,101785.71
2018-06-23T14:50:37.015Z,101789.26
2018-06-23T14:53:03.936Z,101783.78
2018-06-23T14:55:30.898Z,101781.83
2018-06-23T14:57:57.810Z,101776.63
2018-06-23T15:00:24.750Z,101784.52
2018-06-23T15:02:51.670Z,101783.34
2018-06-23T15:05:18.612Z,101783.74
2018-06-23T15:07:45.546Z,101790.13
2018-06-23T15:10:24.324Z,101789.95
2018-06-23T15:13:02.794Z,101782.41
2018-06-23T15:15:29.767Z,101789.67
2018-06-23T15:17:56.676Z,101788.19
2018-06-23T15:20:23.617Z,101784.19
2018-06-23T15:22:50.553Z,101789.13
2018-06-23T15:25:17.482Z,101787.74
2018-06-23T15:27:44.417Z,101780.13
2018-06-23T15:30:11.389Z,101779.55
2018-06-23T15:32:38.331Z,101785.70
2018-06-23T15:35:05.283Z,101784.43
2018-06-23T15:37:32.218Z,101786.92
2018-06-23T15:39:59.171Z,101786.69
2018-06-23T15:42:26.094Z,101779.55
2018-06-23T15:44:53.268Z,101784.42
2018-06-23T15:47:20.201Z,101790.63
2018-06-23T15:49:47.141Z,101785.71
2018-06-23T15:52:14.081Z,101778.99
2018-06-23T15:54:41.003Z,101780.54
2018-06-23T15:57:07.954Z,101785.91
2018-06-23T15:59:34.889Z,101782.66
2018-06-23T16:02:01.921Z,101767.84
2018-06-23T16:04:28.872Z,101775.14
2018-06-23T16:06:55.793Z,101781.17
2018-06-23T16:09:22.740Z,101776.73
2018-06-23T16:11:49.708Z,101772.08
2018-06-23T16:14:16.617Z,101772.44
2018-06-23T16:16:43.588Z,101775.28
2018-06-23T16:19:10.501Z,101769.73
2018-06-23T16:21:37.457Z,101771.98
2018-06-23T16:24:04.414Z,101772.08
2018-06-23T16:26:31.357Z,101758.63
2018-06-23T16:28:58.302Z,101766.21
2018-06-23T16:31:25.264Z,101768.47
2018-06-23T16:33:52.185Z,101764.56
2018-06-23T16:36:19.144Z,101760.61
2018-06-23T16:38:46.385Z,101764.39
2018-06-23T16:41:13.361Z,101763.59
2018-06-23T16:43:40.338Z,101761.20
2018-06-23T16:46:07.273Z,101758.70
2018-06-23T16:48:34.274Z,101766.14
2018-06-23T16:51:01.361Z,101765.30
2018-06-23T16:53:28.309Z,101770.56
2018-06-23T16:55:55.285Z,101769.55
2018-06-23T16:58:22.222Z,101768.89
2018-06-23T17:00:49.197Z,101773.50
2018-06-23T17:03:16.157Z,101770.16
2018-06-23T17:05:43.108Z,101771.81
2018-06-23T17:08:10.053Z,101772.74
2018-06-23T17:10:36.989Z,101777.87
2018-06-23T17:13:03.916Z,101771.97
2018-06-23T17:15:30.873Z,101770.13
2018-06-23T17:17:57.811Z,101773.22
2018-06-23T17:20:24.782Z,101763.47
2018-06-23T17:22:51.705Z,101765.23
2018-06-23T17:25:18.637Z,101763.59
2018-06-23T17:27:45.587Z,101769.80
2018-06-23T17:30:12.539Z,101770.28
2018-06-23T17:32:39.489Z,101772.37
2018-06-23T17:35:06.433Z,101772.41
2018-06-23T17:37:33.384Z,101764.88
2018-06-23T17:40:00.308Z,101768.42
2018-06-23T17:42:27.250Z,101767.66
2018-06-23T17:44:54.191Z,101762.13
2018-06-23T17:47:21.123Z,101756.73
2018-06-23T17:49:48.057Z,101752.97
2018-06-23T17:52:14.994Z,101755.03
2018-06-23T17:54:41.937Z,101761.66
2018-06-23T17:57:09.010Z,101762.58
2018-06-23T17:59:35.878Z,101755.00
2018-06-23T18:02:02.875Z,101762.06
2018-06-23T18:04:29.793Z,101757.74
2018-06-23T18:06:56.745Z,101763.10
2018-06-23T18:09:23.689Z,101768.38
2018-06-23T18:11:50.653Z,101768.59
2018-06-23T18:14:17.561Z,101777.13
2018-06-23T18:16:44.577Z,101767.46
2018-06-23T18:19:11.512Z,101776.52
2018-06-23T18:21:38.453Z,101765.96
2018-06-23T18:24:05.408Z,101778.61
2018-06-23T18:26:32.572Z,101771.08
2018-06-23T18:28:59.530Z,101771.67
2018-06-23T18:31:26.814Z,101772.41
2018-06-23T18:33:53.816Z,101771.23
2018-06-23T18:36:20.778Z,101776.89
2018-06-23T18:38:47.715Z,101775.38
2018-06-23T18:41:14.677Z,101774.63
2018-06-23T18:43:41.619Z,101779.77
2018-06-23T18:46:08.557Z,101772.49
2018-06-23T18:48:35.515Z,101784.59
2018-06-23T18:51:02.489Z,101784.29
2018-06-23T18:53:29.434Z,101784.43
2018-06-23T18:55:56.364Z,101792.06
2018-06-23T18:58:23.317Z,101792.27
2018-06-23T19:00:50.274Z,101791.28
2018-06-23T19:03:17.227Z,101791.55
2018-06-23T19:05:44.218Z,101790.46
2018-06-23T19:08:11.183Z,101797.00
2018-06-23T19:10:38.123Z,101787.94
2018-06-23T19:13:05.106Z,101789.41
2018-06-23T19:15:32.055Z,101793.28
2018-06-23T19:17:58.997Z,101788.78
2018-06-23T19:20:25.949Z,101784.08
2018-06-23T19:22:52.901Z,101788.58
2018-06-23T19:25:19.840Z,101787.45
2018-06-23T19:27:46.799Z,101786.52
2018-06-23T19:30:13.841Z,101792.87
2018-06-23T19:32:40.716Z,101793.17
2018-06-23T19:35:07.638Z,101783.94
2018-06-23T19:37:34.617Z,101791.02
2018-06-23T19:40:01.559Z,101796.67
2018-06-23T19:42:28.517Z,101793.54
2018-06-23T19:44:55.456Z,101797.56
2018-06-23T19:47:22.393Z,101790.06
2018-06-23T19:49:49.316Z,101796.27
2018-06-23T19:52:16.376Z,101801.52
2018-06-23T19:54:43.334Z,101802.03
2018-06-23T19:57:10.288Z,101798.45
2018-06-23T19:59:37.218Z,101812.66
2018-06-23T20:02:04.266Z,101806.53
2018-06-23T20:04:31.302Z,101806.46
2018-06-23T20:06:58.165Z,101801.66
2018-06-23T20:09:25.097Z,101807.48
2018-06-23T20:11:52.053Z,101807.48
2018-06-23T20:14:19.019Z,101809.33
2018-06-23T20:16:45.964Z,101817.10
2018-06-23T20:19:12.889Z,101813.45
2018-06-23T20:21:39.833Z,101825.01
2018-06-23T20:24:06.768Z,101816.52
2018-06-23T20:26:33.726Z,101820.55
2018-06-23T20:29:00.674Z,101824.98
2018-06-23T20:31:27.596Z,101829.71
2018-06-23T20:33:54.758Z,101831.52
2018-06-23T20:36:22.486Z,101827.13
2018-06-23T20:38:49.441Z,101828.38
2018-06-23T20:41:16.384Z,101835.50
2018-06-23T20:43:43.320Z,101828.38
2018-06-23T20:46:10.277Z,101829.75
2018-06-23T20:48:37.232Z,101830.26
2018-06-23T20:51:04.192Z,101829.30
2018-06-23T20:53:31.121Z,101832.44
2018-06-23T20:55:58.167Z,101835.54
2018-06-23T20:58:25.100Z,101844.88
2018-06-23T21:00:52.068Z,101829.84
2018-06-23T21:03:19.056Z,101830.70
2018-06-23T21:05:46.007Z,101831.62
2018-06-23T21:08:12.933Z,101835.54
2018-06-23T21:10:43.746Z,101847.53
2018-06-23T21:13:11.202Z,101842.22
2018-06-23T21:15:38.153Z,101842.63
2018-06-23T21:18:05.301Z,101840.48
2018-06-23T21:20:32.660Z,101843.07
2018-06-23T21:22:59.967Z,101839.08
2018-06-23T21:25:27.190Z,101845.77
2018-06-23T21:27:54.133Z,101844.84
2018-06-23T21:30:21.112Z,101839.52
2018-06-23T21:32:48.044Z,101838.27
2018-06-23T21:35:15.010Z,101834.72
2018-06-23T21:37:41.988Z,101836.08
2018-06-23T21:40:09.213Z,101829.44
2018-06-23T21:42:36.077Z,101826.00
2018-06-23T21:45:03.065Z,101828.72
2018-06-23T21:47:30.027Z,101824.67
2018-06-23T21:49:57.497Z,101824.70
2018-06-23T21:52:24.460Z,101827.91
2018-06-23T21:54:51.410Z,101836.77
2018-06-23T21:57:18.341Z,101828.38
2018-06-23T21:59:45.277Z,101825.55
2018-06-23T22:02:12.281Z,101816.81
2018-06-23T22:04:39.338Z,101820.52
2018-06-23T22:07:07.616Z,101821.78
2018-06-23T22:09:34.588Z,101811.47
2018-06-23T22:12:01.587Z,101802.81
2018-06-23T22:14:28.513Z,101807.42
2018-06-23T22:16:55.457Z,101808.41
2018-06-23T22:19:22.500Z,101797.81
2018-06-23T22:21:49.466Z,101800.06
2018-06-23T22:24:16.413Z,101799.02
2018-06-23T22:26:43.360Z,101796.90
2018-06-23T22:29:10.344Z,101801.36
2018-06-23T22:31:37.294Z,101801.13
2018-06-23T22:34:04.526Z,101797.59
2018-06-23T22:36:31.616Z,101796.87
2018-06-23T22:39:02.108Z,101797.69
2018-06-23T22:41:29.061Z,101792.95
2018-06-23T22:43:56.018Z,101792.47
2018-06-23T22:46:22.970Z,101795.19
2018-06-23T22:48:49.896Z,101792.03
2018-06-23T22:51:17.436Z,101789.84
2018-06-23T22:53:44.361Z,101789.09
2018-06-23T22:56:11.307Z,101796.67
2018-06-23T22:58:38.269Z,101792.22
2018-06-23T23:01:05.315Z,101787.95
2018-06-23T23:03:32.265Z,101785.26
2018-06-23T23:05:59.813Z,101790.98
2018-06-23T23:08:26.737Z,101788.89
2018-06-23T23:10:53.714Z,101793.94
2018-06-23T23:13:20.637Z,101795.53
2018-06-23T23:15:47.581Z,101802.79
2018-06-23T23:18:14.573Z,101789.58
2018-06-23T23:20:41.477Z,101784.68
2018-06-23T23:23:08.415Z,101793.11
2018-06-23T23:25:35.425Z,101789.66
2018-06-23T23:28:02.642Z,101788.78
2018-06-23T23:30:30.409Z,101788.78
2018-06-23T23:32:57.473Z,101787.45
2018-06-23T23:35:24.414Z,101775.13
2018-06-23T23:37:51.355Z,101775.66
2018-06-23T23:40:18.315Z,101768.96
2018-06-23T23:42:45.255Z,101768.96
2018-06-23T23:45:12.202Z,101763.77
2018-06-23T23:47:39.149Z,101761.65
2018-06-23T23:50:06.090Z,101767.87
2018-06-23T23:52:33.077Z,101766.45
2018-06-23T23:54:59.990Z,101763.47
2018-06-23T23:57:26.936Z,101763.00
2018-06-23T23:59:53.898Z,101760.27
